createdAt,value
2019-03-16T00:05:01.704Z,9.4
2019-03-16T00:09:51.098Z,9.3
2019-03-16T00:14:51.131Z,9.3
2019-03-16T00:19:51.132Z,9.3
2019-03-16T00:24:51.077Z,9.3
2019-03-16T00:29:51.102Z,9.3
2019-03-16T00:34:51.089Z,9.3
2019-03-16T00:39:51.062Z,9.3
2019-03-16T00:44:51.056Z,9.1
2019-03-16T00:49:51.078Z,8.9
2019-03-16T00:54:51.079Z,8.7
2019-03-16T00:59:51.066Z,8.6
2019-03-16T01:04:51.071Z,8.5
2019-03-16T01:09:51.076Z,8.7
2019-03-16T01:14:51.025Z,8.8
2019-03-16T01:19:51.013Z,8.8
2019-03-16T01:24:51.052Z,8.8
2019-03-16T01:29:51.047Z,8.9
2019-03-16T01:34:51.007Z,8.9
2019-03-16T01:39:51.010Z,8.8
2019-03-16T01:44:51.063Z,8.6
2019-03-16T01:49:51.009Z,8.4
2019-03-16T01:54:51.021Z,8.4
2019-03-16T01:59:51.001Z,8.5
2019-03-16T02:04:50.958Z,8.5
2019-03-16T02:09:51.012Z,8.6
2019-03-16T02:14:50.985Z,8.6
2019-03-16T02:19:50.983Z,8.6
2019-03-16T02:24:50.989Z,8.6
2019-03-16T02:29:50.997Z,8.6
2019-03-16T02:34:51.002Z,8.6
2019-03-16T02:39:50.938Z,8.5
2019-03-16T02:44:51.057Z,8.5
2019-03-16T02:49:50.978Z,8.5
2019-03-16T02:54:50.950Z,8.4
2019-03-16T02:59:50.921Z,8.1
2019-03-16T03:04:50.947Z,8
2019-03-16T03:09:50.918Z,8.1
2019-03-16T03:14:50.902Z,8.1
2019-03-16T03:19:50.950Z,8.2
2019-03-16T03:24:50.945Z,8.2
2019-03-16T03:29:50.915Z,8.2
2019-03-16T03:34:50.937Z,8.3
2019-03-16T03:39:50.915Z,8.3
2019-03-16T03:44:50.883Z,8.1
2019-03-16T03:49:50.887Z,7.9
2019-03-16T03:54:50.919Z,7.8
2019-03-16T03:59:50.872Z,7.9
2019-03-16T04:04:50.830Z,8
2019-03-16T04:09:50.892Z,8.1
2019-03-16T04:14:51.028Z,8.1
2019-03-16T04:19:50.875Z,8.1
2019-03-16T04:24:50.859Z,8.1
2019-03-16T04:29:50.870Z,8.1
2019-03-16T04:34:50.833Z,8.1
2019-03-16T04:39:50.911Z,8.1
2019-03-16T04:44:50.806Z,8.1
2019-03-16T04:49:50.851Z,8.1
2019-03-16T04:54:50.818Z,8.1
2019-03-16T04:59:50.766Z,8.1
2019-03-16T05:04:50.830Z,7.9
2019-03-16T05:09:50.764Z,7.8
2019-03-16T05:14:50.792Z,8
2019-03-16T05:19:50.791Z,8.1
2019-03-16T05:24:50.788Z,8.2
2019-03-16T05:29:50.731Z,8.3
2019-03-16T05:34:57.098Z,8.3
2019-03-16T05:39:50.723Z,8.3
2019-03-16T05:44:50.733Z,8.4
2019-03-16T05:49:50.858Z,8.4
2019-03-16T05:54:50.703Z,8.4
2019-03-16T05:59:50.810Z,8.2
2019-03-16T06:04:50.750Z,8.1
2019-03-16T06:09:50.692Z,8.2
2019-03-16T06:14:50.689Z,8.2
2019-03-16T06:19:50.720Z,8.2
2019-03-16T06:24:50.706Z,8.1
2019-03-16T06:29:50.695Z,8.3
2019-03-16T06:34:50.820Z,8.4
2019-03-16T06:39:50.684Z,8.5
2019-03-16T06:44:50.666Z,8.5
2019-03-16T06:49:50.696Z,8.6
2019-03-16T06:54:50.687Z,8.6
2019-03-16T06:59:50.642Z,8.7
2019-03-16T07:04:50.682Z,8.7
2019-03-16T07:09:50.723Z,8.7
2019-03-16T07:14:50.652Z,8.7
2019-03-16T07:19:50.649Z,8.8
2019-03-16T07:24:51.997Z,8.8
2019-03-16T07:29:50.612Z,8.8
2019-03-16T07:34:50.624Z,8.6
2019-03-16T07:39:50.641Z,8.5
2019-03-16T07:44:50.617Z,8.6
2019-03-16T07:49:50.590Z,8.7
2019-03-16T07:54:50.610Z,8.8
2019-03-16T07:59:50.578Z,8.9
2019-03-16T08:04:50.590Z,8.9
2019-03-16T08:09:50.646Z,8.9
2019-03-16T08:14:50.741Z,9
2019-03-16T08:19:50.654Z,9
2019-03-16T08:24:50.621Z,9
2019-03-16T08:29:50.578Z,9
2019-03-16T08:34:50.550Z,9
2019-03-16T08:39:50.547Z,8.7
2019-03-16T08:44:50.625Z,8.5
2019-03-16T08:49:50.515Z,8.6
2019-03-16T08:54:50.535Z,8.7
2019-03-16T08:59:50.510Z,8.8
2019-03-16T09:04:50.508Z,8.8
2019-03-16T09:09:50.546Z,8.8
2019-03-16T09:14:50.553Z,8.8
2019-03-16T09:19:50.490Z,8.8
2019-03-16T09:24:50.495Z,8.8
2019-03-16T09:29:50.479Z,8.7
2019-03-16T09:34:50.469Z,8.8
2019-03-16T09:39:50.447Z,8.8
2019-03-16T09:44:51.258Z,8.7
2019-03-16T09:49:51.231Z,8.7
2019-03-16T09:54:51.193Z,8.6
2019-03-16T09:59:51.228Z,8.3
2019-03-16T10:04:51.207Z,8.4
2019-03-16T10:09:51.180Z,8.2
2019-03-16T10:14:51.209Z,8.1
2019-03-16T10:19:51.224Z,8.2
2019-03-16T10:24:51.184Z,8.3
2019-03-16T10:29:51.194Z,8.4
2019-03-16T10:34:51.175Z,8.4
2019-03-16T10:39:51.136Z,8.5
2019-03-16T10:44:51.139Z,8.5
2019-03-16T10:49:51.159Z,8.5
2019-03-16T10:54:51.180Z,8.5
2019-03-16T10:59:51.147Z,8.5
2019-03-16T11:04:51.127Z,8.4
2019-03-16T11:09:51.099Z,8.4
2019-03-16T11:14:51.180Z,8.4
2019-03-16T11:19:51.128Z,8.3
2019-03-16T11:24:51.121Z,8.3
2019-03-16T11:29:51.222Z,8.3
2019-03-16T11:34:51.102Z,8.2
2019-03-16T11:39:51.064Z,8.2
2019-03-16T11:44:51.166Z,8.2
2019-03-16T11:49:51.085Z,8.2
2019-03-16T11:54:52.323Z,8.2
2019-03-16T11:59:51.083Z,8.2
2019-03-16T12:04:51.060Z,8.2
2019-03-16T12:09:51.091Z,8.3
2019-03-16T12:14:51.078Z,8.3
2019-03-16T12:19:51.046Z,8.4
2019-03-16T12:24:51.024Z,8.5
2019-03-16T12:29:51.041Z,8.6
2019-03-16T12:34:51.045Z,8.7
2019-03-16T12:39:51.028Z,8.9
2019-03-16T12:44:51.040Z,9
2019-03-16T12:49:51.042Z,9.3
2019-03-16T12:54:51.008Z,9.6
2019-03-16T12:59:51.036Z,9.9
2019-03-16T13:04:50.991Z,10.4
2019-03-16T13:09:50.986Z,10.4
2019-03-16T13:14:51.008Z,10.3
2019-03-16T13:19:51.018Z,10.5
2019-03-16T13:24:50.956Z,11.1
2019-03-16T13:29:59.556Z,11.4
2019-03-16T13:34:50.997Z,11.4
2019-03-16T13:39:50.950Z,11.2
2019-03-16T13:44:50.968Z,11.1
2019-03-16T13:49:50.939Z,10.9
2019-03-16T13:54:51.373Z,10.8
2019-03-16T13:59:50.947Z,10.7
2019-03-16T14:04:50.999Z,10.6
2019-03-16T14:09:50.939Z,10.5
2019-03-16T14:14:50.919Z,10.4
2019-03-16T14:19:50.921Z,10.5
2019-03-16T14:24:50.894Z,10.5
2019-03-16T14:29:50.905Z,10.5
2019-03-16T14:34:51.754Z,10.4
2019-03-16T14:39:51.798Z,10.4
2019-03-16T14:44:50.873Z,10.3
2019-03-16T14:49:50.973Z,10.3
2019-03-16T14:54:50.890Z,10.3
2019-03-16T14:59:50.874Z,10.2
2019-03-16T15:04:50.870Z,10.2
2019-03-16T15:09:50.855Z,10.1
2019-03-16T15:14:50.883Z,10
2019-03-16T15:19:50.808Z,10
2019-03-16T15:24:50.862Z,10
2019-03-16T15:29:50.811Z,9.9
2019-03-16T15:34:50.833Z,9.8
2019-03-16T15:39:50.834Z,9.7
2019-03-16T15:44:50.790Z,9.7
2019-03-16T15:49:50.799Z,9.6
2019-03-16T15:54:50.836Z,9.6
2019-03-16T15:59:50.767Z,9.5
2019-03-16T16:04:50.778Z,9.5
2019-03-16T16:09:50.825Z,9.4
2019-03-16T16:14:50.808Z,9.4
2019-03-16T16:19:50.788Z,9.4
2019-03-16T16:24:50.796Z,9.4
2019-03-16T16:29:50.771Z,9.3
2019-03-16T16:34:50.727Z,9.3
2019-03-16T16:39:50.794Z,9.3
2019-03-16T16:44:50.768Z,9.3
2019-03-16T16:49:50.806Z,9.2
2019-03-16T16:54:50.726Z,9.2
2019-03-16T16:59:50.756Z,9.2
2019-03-16T17:04:50.771Z,9.2
2019-03-16T17:09:50.737Z,9.2
2019-03-16T17:14:50.858Z,9.2
2019-03-16T17:19:50.711Z,9.2
2019-03-16T17:24:50.691Z,9.2
2019-03-16T17:29:50.748Z,9.2
2019-03-16T17:34:50.704Z,9.2
2019-03-16T17:39:50.695Z,9.1
2019-03-16T17:44:51.404Z,9.1
2019-03-16T17:49:50.663Z,9.1
2019-03-16T17:54:50.681Z,9.1
2019-03-16T17:59:50.668Z,9.1
2019-03-16T18:04:50.651Z,9.1
2019-03-16T18:09:50.620Z,9.1
2019-03-16T18:14:50.668Z,9.1
2019-03-16T18:19:50.700Z,9.1
2019-03-16T18:24:50.652Z,9.1
2019-03-16T18:29:50.616Z,9.1
2019-03-16T18:34:50.649Z,9.1
2019-03-16T18:39:50.635Z,9.1
2019-03-16T18:44:50.566Z,9.1
2019-03-16T18:49:50.641Z,9.1
2019-03-16T18:54:50.568Z,9.1
2019-03-16T18:59:50.603Z,9.1
2019-03-16T19:04:50.581Z,9.1
2019-03-16T19:09:53.886Z,9.1
2019-03-16T19:14:50.558Z,9
2019-03-16T19:19:50.568Z,9
2019-03-16T19:24:50.595Z,9
2019-03-16T19:29:50.562Z,8.9
2019-03-16T19:34:50.648Z,8.7
2019-03-16T19:39:50.520Z,8.8
2019-03-16T19:44:50.577Z,8.8
2019-03-16T19:49:50.547Z,8.8
2019-03-16T19:54:50.550Z,8.9
2019-03-16T19:59:50.564Z,8.8
2019-03-16T20:04:50.541Z,8.9
2019-03-16T20:09:50.514Z,8.8
2019-03-16T20:14:50.532Z,8.8
2019-03-16T20:19:50.496Z,8.8
2019-03-16T20:24:50.487Z,8.8
2019-03-16T20:29:50.514Z,8.8
2019-03-16T20:34:50.561Z,8.8
2019-03-16T20:39:50.476Z,8.8
2019-03-16T20:44:50.547Z,8.8
2019-03-16T20:49:50.474Z,8.8
2019-03-16T20:54:50.459Z,8.8
2019-03-16T20:59:50.483Z,8.8
2019-03-16T21:04:50.487Z,8.8
2019-03-16T21:09:50.431Z,8.8
2019-03-16T21:14:50.468Z,8.8
2019-03-16T21:19:50.442Z,8.8
2019-03-16T21:24:50.445Z,8.8
2019-03-16T21:29:50.444Z,8.8
2019-03-16T21:34:50.409Z,8.8
2019-03-16T21:39:50.392Z,8.8
2019-03-16T21:44:50.391Z,8.8
2019-03-16T21:49:50.424Z,8.8
2019-03-16T21:54:50.377Z,8.8
2019-03-16T21:59:50.378Z,8.8
2019-03-16T22:04:51.126Z,8.8
2019-03-16T22:09:51.136Z,8.9
2019-03-16T22:14:51.091Z,8.9
2019-03-16T22:19:51.121Z,8.8
2019-03-16T22:24:51.093Z,8.8
2019-03-16T22:29:51.097Z,8.9
2019-03-16T22:34:51.098Z,8.8
2019-03-16T22:39:51.058Z,8.6
2019-03-16T22:44:51.105Z,8.5
2019-03-16T22:49:51.093Z,8.6
2019-03-16T22:54:51.029Z,8.7
2019-03-16T22:59:51.076Z,8.7
2019-03-16T23:04:51.026Z,8.8
2019-03-16T23:09:51.063Z,8.8
2019-03-16T23:14:51.092Z,8.9
2019-03-16T23:19:51.016Z,8.8
2019-03-16T23:24:51.017Z,8.6
2019-03-16T23:29:51.027Z,8.5
2019-03-16T23:34:51.015Z,8.6
2019-03-16T23:39:51.024Z,8.6
2019-03-16T23:44:51.051Z,8.7
2019-03-16T23:49:51.016Z,8.7
2019-03-16T23:54:51.002Z,8.8
2019-03-16T23:59:51.022Z,8.6
